createdAt,value
2018-08-17T00:00:53.249Z,9.13
2018-08-17T00:03:21.611Z,6.00
2018-08-17T00:05:50.021Z,5.50
2018-08-17T00:08:18.380Z,8.97
2018-08-17T00:10:46.689Z,6.20
2018-08-17T00:13:15.019Z,6.60
2018-08-17T00:15:43.375Z,7.97
2018-08-17T00:18:11.774Z,8.20
2018-08-17T00:20:40.115Z,6.40
2018-08-17T00:23:08.429Z,5.93
2018-08-17T00:25:36.761Z,7.60
2018-08-17T00:28:05.323Z,6.50
2018-08-17T00:30:33.784Z,6.20
2018-08-17T00:33:02.209Z,6.10
2018-08-17T00:35:30.595Z,5.80
2018-08-17T00:37:59.054Z,5.40
2018-08-17T00:40:27.393Z,5.60
2018-08-17T00:42:55.741Z,7.73
2018-08-17T00:45:24.142Z,5.67
2018-08-17T00:47:52.581Z,7.73
2018-08-17T00:50:21.041Z,7.20
2018-08-17T00:52:49.407Z,6.10
2018-08-17T00:55:17.797Z,9.80
2018-08-17T00:57:46.113Z,6.70
2018-08-17T01:00:21.286Z,4.77
2018-08-17T01:02:49.681Z,5.57
2018-08-17T01:05:18.191Z,5.40
2018-08-17T01:07:46.633Z,8.97
2018-08-17T01:10:15.032Z,6.43
2018-08-17T01:12:43.432Z,9.00
2018-08-17T01:15:11.784Z,6.13
2018-08-17T01:17:40.369Z,10.57
2018-08-17T01:20:10.617Z,6.77
2018-08-17T01:22:39.158Z,6.53
2018-08-17T01:25:07.607Z,8.27
2018-08-17T01:27:35.933Z,7.63
2018-08-17T01:30:05.156Z,6.67
2018-08-17T01:32:33.633Z,5.27
2018-08-17T01:35:01.973Z,8.70
2018-08-17T01:37:30.278Z,10.20
2018-08-17T01:39:58.609Z,5.03
2018-08-17T01:42:26.965Z,5.10
2018-08-17T01:44:55.375Z,6.23
2018-08-17T01:47:23.764Z,4.37
2018-08-17T01:49:52.078Z,4.67
2018-08-17T01:52:20.415Z,5.63
2018-08-17T01:54:48.796Z,5.97
2018-08-17T01:57:17.124Z,7.90
2018-08-17T01:59:45.521Z,13.73
2018-08-17T02:02:13.848Z,5.50
2018-08-17T02:04:42.265Z,7.27
2018-08-17T02:07:10.783Z,8.23
2018-08-17T02:09:39.102Z,5.30
2018-08-17T02:12:07.822Z,6.07
2018-08-17T02:14:36.187Z,7.07
2018-08-17T02:17:04.486Z,10.03
2018-08-17T02:19:32.843Z,7.13
2018-08-17T02:22:01.149Z,6.60
2018-08-17T02:24:29.523Z,4.97
2018-08-17T02:26:57.822Z,6.00
2018-08-17T02:29:26.148Z,4.90
2018-08-17T02:31:54.505Z,6.40
2018-08-17T02:34:22.826Z,5.20
2018-08-17T02:36:51.165Z,4.97
2018-08-17T02:39:19.505Z,6.30
2018-08-17T02:41:47.938Z,5.77
2018-08-17T02:44:16.313Z,4.97
2018-08-17T02:46:44.682Z,7.20
2018-08-17T02:49:12.974Z,5.73
2018-08-17T02:51:41.420Z,6.00
2018-08-17T02:54:09.898Z,5.50
2018-08-17T02:56:38.241Z,4.50
2018-08-17T02:59:06.552Z,4.83
2018-08-17T03:01:34.861Z,6.30
2018-08-17T03:04:03.251Z,6.10
2018-08-17T03:06:31.526Z,5.07
2018-08-17T03:08:59.945Z,4.53
2018-08-17T03:11:28.276Z,4.13
2018-08-17T03:13:56.618Z,5.17
2018-08-17T03:16:24.965Z,7.93
2018-08-17T03:18:53.321Z,6.47
2018-08-17T03:21:21.697Z,6.83
2018-08-17T03:23:50.049Z,6.20
2018-08-17T03:26:18.437Z,5.13
2018-08-17T03:28:46.804Z,6.03
2018-08-17T03:31:15.139Z,5.30
2018-08-17T03:33:43.474Z,6.73
2018-08-17T03:36:11.808Z,6.87
2018-08-17T03:38:40.204Z,6.90
2018-08-17T03:41:08.592Z,8.13
2018-08-17T03:43:36.908Z,5.73
2018-08-17T03:46:05.325Z,6.00
2018-08-17T03:48:33.611Z,5.90
2018-08-17T03:51:02.012Z,7.87
2018-08-17T03:55:57.152Z,7.67
2018-08-17T03:58:25.818Z,5.80
2018-08-17T04:00:54.437Z,5.43
2018-08-17T04:03:22.854Z,6.43
2018-08-17T04:05:51.282Z,11.30
2018-08-17T04:08:19.684Z,5.53
2018-08-17T04:10:48.024Z,11.10
2018-08-17T04:13:16.357Z,8.00
2018-08-17T04:15:44.717Z,8.00
2018-08-17T04:18:14.077Z,6.63
2018-08-17T04:20:42.422Z,5.77
2018-08-17T04:23:10.742Z,8.30
2018-08-17T04:25:39.058Z,5.03
2018-08-17T04:28:07.350Z,9.80
2018-08-17T04:30:35.712Z,9.80
2018-08-17T04:33:04.024Z,11.47
2018-08-17T04:35:32.352Z,6.90
2018-08-17T04:38:00.675Z,6.10
2018-08-17T04:40:28.989Z,4.50
2018-08-17T04:42:57.344Z,7.77
2018-08-17T04:45:25.684Z,8.40
2018-08-17T04:47:54.081Z,4.93
2018-08-17T04:50:22.442Z,5.57
2018-08-17T04:52:50.819Z,7.57
2018-08-17T04:55:19.339Z,8.07
2018-08-17T04:57:47.689Z,9.50
2018-08-17T05:00:16.007Z,6.63
2018-08-17T05:02:44.342Z,8.80
2018-08-17T05:05:12.661Z,6.47
2018-08-17T05:07:41.006Z,7.93
2018-08-17T05:10:09.341Z,7.50
2018-08-17T05:12:44.463Z,11.60
2018-08-17T05:15:12.777Z,7.77
2018-08-17T05:17:41.138Z,6.43
2018-08-17T05:20:09.527Z,5.80
2018-08-17T05:22:37.863Z,6.40
2018-08-17T05:25:06.408Z,9.73
2018-08-17T05:27:34.729Z,7.13
2018-08-17T05:30:03.400Z,12.70
2018-08-17T05:32:31.791Z,6.10
2018-08-17T05:35:00.103Z,7.60
2018-08-17T05:37:28.480Z,7.93
2018-08-17T05:39:56.929Z,8.20
2018-08-17T05:42:25.318Z,6.00
2018-08-17T05:44:53.687Z,9.50
2018-08-17T05:47:21.937Z,10.60
2018-08-17T05:49:50.376Z,8.13
2018-08-17T05:52:18.692Z,8.97
2018-08-17T05:54:47.078Z,8.00
2018-08-17T05:57:15.416Z,8.27
2018-08-17T05:59:43.760Z,7.03
2018-08-17T06:02:12.174Z,6.33
2018-08-17T06:04:40.525Z,7.90
2018-08-17T06:07:08.844Z,11.40
2018-08-17T06:09:37.249Z,6.97
2018-08-17T06:12:05.673Z,9.10
2018-08-17T06:14:33.986Z,6.27
2018-08-17T06:17:02.381Z,10.43
2018-08-17T06:19:30.723Z,6.57
2018-08-17T06:21:59.093Z,8.57
2018-08-17T06:24:27.465Z,9.57
2018-08-17T06:26:55.808Z,13.10
2018-08-17T06:29:24.190Z,6.53
2018-08-17T06:31:52.622Z,12.07
2018-08-17T06:34:20.988Z,7.47
2018-08-17T06:36:49.581Z,9.60
2018-08-17T06:39:17.971Z,9.10
2018-08-17T06:41:46.342Z,6.70
2018-08-17T06:44:14.678Z,12.37
2018-08-17T06:46:43.045Z,18.37
2018-08-17T06:49:11.362Z,8.83
2018-08-17T06:51:39.712Z,8.40
2018-08-17T06:54:08.084Z,12.03
2018-08-17T06:56:36.405Z,16.30
2018-08-17T06:59:05.133Z,17.80
2018-08-17T07:01:33.430Z,10.87
2018-08-17T07:04:01.817Z,11.90
2018-08-17T07:06:30.161Z,6.43
2018-08-17T07:08:58.598Z,10.53
2018-08-17T07:11:26.933Z,10.63
2018-08-17T07:13:55.294Z,7.47
2018-08-17T07:16:23.625Z,7.80
2018-08-17T07:18:52.022Z,8.43
2018-08-17T07:21:20.312Z,14.10
2018-08-17T07:23:48.631Z,8.00
2018-08-17T07:26:17.270Z,8.20
2018-08-17T07:28:45.605Z,8.87
2018-08-17T07:31:14.086Z,6.67
2018-08-17T07:33:42.511Z,7.53
2018-08-17T07:36:10.962Z,5.57
2018-08-17T07:38:39.368Z,7.20
2018-08-17T07:41:07.743Z,9.77
2018-08-17T07:43:36.128Z,12.87
2018-08-17T07:46:04.493Z,7.00
2018-08-17T07:48:32.839Z,15.83
2018-08-17T07:51:01.246Z,8.50
2018-08-17T07:53:29.525Z,6.40
2018-08-17T07:55:57.875Z,8.23
2018-08-17T07:58:26.166Z,7.17
2018-08-17T08:00:54.573Z,6.60
2018-08-17T08:03:22.976Z,8.37
2018-08-17T08:05:51.404Z,10.23
2018-08-17T08:08:19.767Z,7.80
2018-08-17T08:10:48.106Z,7.70
2018-08-17T08:13:16.474Z,7.80
2018-08-17T08:15:44.886Z,10.97
2018-08-17T08:18:13.408Z,12.30
2018-08-17T08:20:44.234Z,9.20
2018-08-17T08:23:24.224Z,8.13
2018-08-17T08:25:52.981Z,9.10
2018-08-17T08:28:21.733Z,8.67
2018-08-17T08:30:50.268Z,8.33
2018-08-17T08:33:19.117Z,6.80
2018-08-17T08:35:48.080Z,9.13
2018-08-17T08:38:16.842Z,6.90
2018-08-17T08:40:45.848Z,8.57
2018-08-17T08:43:14.486Z,9.27
2018-08-17T08:45:42.836Z,7.93
2018-08-17T08:48:11.655Z,5.77
2018-08-17T08:50:40.077Z,6.60
2018-08-17T08:53:09.014Z,8.70
2018-08-17T08:55:37.529Z,8.30
2018-08-17T08:58:06.011Z,9.00
2018-08-17T09:00:34.551Z,6.83
2018-08-17T09:03:03.495Z,8.77
2018-08-17T09:05:31.833Z,6.43
2018-08-17T09:08:00.371Z,10.13
2018-08-17T09:10:28.710Z,8.13
2018-08-17T09:12:58.090Z,5.30
2018-08-17T09:15:26.490Z,7.53
2018-08-17T09:17:54.891Z,5.53
2018-08-17T09:20:23.276Z,6.50
2018-08-17T09:22:51.664Z,7.27
2018-08-17T09:25:20.026Z,6.47
2018-08-17T09:27:48.425Z,9.23
2018-08-17T09:30:16.933Z,8.60
2018-08-17T09:32:45.237Z,7.20
2018-08-17T09:35:13.824Z,8.07
2018-08-17T09:37:42.552Z,8.53
2018-08-17T09:40:11.522Z,9.90
2018-08-17T09:42:39.905Z,10.30
2018-08-17T09:45:10.874Z,12.30
2018-08-17T09:47:39.199Z,10.20
2018-08-17T09:50:11.606Z,14.43
2018-08-17T09:52:40.292Z,5.47
2018-08-17T09:55:09.378Z,8.70
2018-08-17T09:57:37.810Z,7.20
2018-08-17T10:00:08.097Z,9.80
2018-08-17T10:02:42.191Z,5.77
2018-08-17T10:05:15.863Z,4.67
2018-08-17T10:07:49.904Z,6.73
2018-08-17T10:10:19.683Z,11.50
2018-08-17T10:12:49.278Z,8.10
2018-08-17T10:15:17.820Z,5.50
2018-08-17T10:17:46.684Z,13.00
2018-08-17T10:20:19.885Z,7.90
2018-08-17T10:22:48.237Z,8.00
2018-08-17T10:25:18.084Z,9.20
2018-08-17T10:27:47.994Z,6.23
2018-08-17T10:30:17.706Z,6.10
2018-08-17T10:32:55.184Z,6.80
2018-08-17T10:35:24.718Z,7.70
2018-08-17T10:37:55.217Z,7.90
2018-08-17T10:40:24.348Z,7.50
2018-08-17T10:42:52.715Z,8.43
2018-08-17T10:45:22.614Z,8.73
2018-08-17T10:47:51.962Z,6.03
2018-08-17T10:50:21.865Z,7.10
2018-08-17T10:52:54.504Z,10.00
2018-08-17T10:55:28.836Z,9.43
2018-08-17T10:57:57.233Z,12.97
2018-08-17T11:00:25.599Z,6.80
2018-08-17T11:02:54.268Z,6.60
2018-08-17T11:05:23.148Z,8.30
2018-08-17T11:07:51.625Z,6.40
2018-08-17T11:10:26.750Z,5.63
2018-08-17T11:12:55.074Z,7.37
2018-08-17T11:15:23.575Z,8.10
2018-08-17T11:17:52.023Z,6.43
2018-08-17T11:20:20.781Z,7.33
2018-08-17T11:22:49.149Z,6.60
2018-08-17T11:25:17.486Z,10.73
2018-08-17T11:27:47.203Z,7.33
2018-08-17T11:30:15.588Z,7.33
2018-08-17T11:32:43.928Z,7.00
2018-08-17T11:35:12.302Z,6.73
2018-08-17T11:37:40.679Z,5.93
2018-08-17T11:40:10.445Z,10.30
2018-08-17T11:42:45.023Z,12.83
2018-08-17T11:45:19.789Z,8.83
2018-08-17T11:47:49.045Z,7.30
2018-08-17T11:50:19.363Z,6.60
2018-08-17T11:52:57.546Z,6.50
2018-08-17T11:55:28.225Z,10.93
2018-08-17T11:57:56.652Z,6.57
2018-08-17T12:00:25.274Z,6.90
2018-08-17T12:02:54.240Z,10.87
2018-08-17T12:05:22.775Z,6.80
2018-08-17T12:07:51.195Z,6.67
2018-08-17T12:10:20.055Z,7.93
2018-08-17T12:12:48.002Z,11.97
2018-08-17T12:15:16.469Z,7.80
2018-08-17T12:17:44.840Z,7.33
2018-08-17T12:20:13.343Z,6.70
2018-08-17T12:22:48.483Z,8.97
2018-08-17T12:25:16.871Z,6.43
2018-08-17T12:27:52.685Z,7.07
2018-08-17T12:30:21.612Z,7.10
2018-08-17T12:32:49.978Z,10.77
2018-08-17T12:35:18.301Z,10.80
2018-08-17T12:37:47.191Z,7.00
2018-08-17T12:40:15.689Z,7.53
2018-08-17T12:42:43.909Z,8.37
2018-08-17T12:45:16.415Z,7.37
2018-08-17T12:47:44.901Z,6.83
2018-08-17T12:50:13.290Z,11.53
2018-08-17T12:52:41.678Z,9.70
2018-08-17T12:55:10.037Z,9.20
2018-08-17T12:57:40.339Z,5.70
2018-08-17T13:00:08.827Z,6.37
2018-08-17T13:02:37.220Z,6.83
2018-08-17T13:05:05.666Z,7.67
2018-08-17T13:07:33.996Z,6.50
2018-08-17T13:10:02.425Z,6.83
2018-08-17T13:12:30.856Z,7.73
2018-08-17T13:14:59.262Z,10.37
2018-08-17T13:17:32.945Z,13.63
2018-08-17T13:20:01.378Z,8.30
2018-08-17T13:22:29.762Z,5.37
2018-08-17T13:24:58.145Z,9.87
2018-08-17T13:27:26.497Z,6.53
2018-08-17T13:29:55.114Z,10.67
2018-08-17T13:32:23.519Z,11.73
2018-08-17T13:34:51.906Z,6.63
2018-08-17T13:37:20.325Z,7.10
2018-08-17T13:39:48.703Z,8.27
2018-08-17T13:42:17.196Z,7.60
2018-08-17T13:44:45.583Z,5.50
2018-08-17T13:47:14.009Z,10.70
2018-08-17T13:49:42.357Z,8.57
2018-08-17T13:52:10.737Z,7.93
2018-08-17T13:54:39.100Z,5.10
2018-08-17T13:57:08.399Z,9.57
2018-08-17T13:59:36.749Z,11.13
2018-08-17T14:02:05.130Z,6.30
2018-08-17T14:04:33.510Z,7.40
2018-08-17T14:07:01.882Z,9.53
2018-08-17T14:09:30.255Z,18.23
2018-08-17T14:11:58.650Z,8.40
2018-08-17T14:14:27.085Z,7.63
2018-08-17T14:16:55.766Z,7.73
2018-08-17T14:19:24.351Z,8.77
2018-08-17T14:21:52.724Z,8.27
2018-08-17T14:24:21.078Z,7.80
2018-08-17T14:26:49.607Z,6.63
2018-08-17T14:29:18.057Z,7.67
2018-08-17T14:31:46.394Z,9.03
2018-08-17T14:34:14.834Z,7.17
2018-08-17T14:36:43.176Z,6.40
2018-08-17T14:39:11.709Z,7.47
2018-08-17T14:41:53.970Z,7.20
2018-08-17T14:44:22.339Z,7.17
2018-08-17T14:46:50.783Z,8.67
2018-08-17T14:49:19.112Z,6.70
2018-08-17T14:51:49.663Z,8.07
2018-08-17T14:54:18.099Z,7.03
2018-08-17T14:56:46.947Z,9.97
2018-08-17T14:59:15.888Z,8.10
2018-08-17T15:01:44.300Z,8.93
2018-08-17T15:04:12.733Z,7.47
2018-08-17T15:06:41.127Z,6.37
2018-08-17T15:09:11.909Z,8.70
2018-08-17T15:11:41.027Z,7.97
2018-08-17T15:14:10.886Z,9.80
2018-08-17T15:16:39.273Z,4.60
2018-08-17T15:19:07.696Z,5.83
2018-08-17T15:21:36.084Z,7.67
2018-08-17T15:24:06.369Z,6.90
2018-08-17T15:26:34.778Z,7.03
2018-08-17T15:29:03.157Z,5.63
2018-08-17T15:31:31.666Z,5.60
2018-08-17T15:34:00.054Z,6.00
2018-08-17T15:36:28.446Z,7.10
2018-08-17T15:38:56.869Z,6.40
2018-08-17T15:41:25.268Z,6.63
2018-08-17T15:43:53.696Z,5.70
2018-08-17T15:46:24.881Z,5.20
2018-08-17T15:48:54.322Z,8.87
2018-08-17T15:51:22.714Z,6.57
2018-08-17T15:53:51.258Z,11.23
2018-08-17T15:56:19.672Z,9.40
2018-08-17T15:58:48.170Z,9.23
2018-08-17T16:01:16.521Z,4.50
2018-08-17T16:03:44.885Z,5.07
2018-08-17T16:06:13.300Z,5.17
2018-08-17T16:08:41.710Z,10.10
2018-08-17T16:11:10.172Z,8.80
2018-08-17T16:13:38.564Z,8.00
2018-08-17T16:16:08.035Z,5.40
2018-08-17T16:18:36.512Z,6.00
2018-08-17T16:21:04.968Z,7.20
2018-08-17T16:23:33.926Z,6.00
2018-08-17T16:26:02.230Z,9.23
2018-08-17T16:28:30.722Z,9.10
2018-08-17T16:30:59.218Z,8.50
2018-08-17T16:33:27.655Z,6.53
2018-08-17T16:35:56.043Z,6.97
2018-08-17T16:38:24.522Z,12.10
2018-08-17T16:40:53.177Z,10.43
2018-08-17T16:43:29.564Z,7.63
2018-08-17T16:45:57.986Z,7.00
2018-08-17T16:48:26.374Z,8.07
2018-08-17T16:50:54.762Z,8.97
2018-08-17T16:53:23.296Z,6.57
2018-08-17T16:55:52.517Z,9.70
2018-08-17T16:58:21.686Z,7.93
2018-08-17T17:00:50.123Z,5.40
2018-08-17T17:03:18.601Z,6.90
2018-08-17T17:05:47.781Z,8.60
2018-08-17T17:08:16.107Z,9.73
2018-08-17T17:10:44.642Z,7.07
2018-08-17T17:13:13.133Z,6.90
2018-08-17T17:15:41.526Z,6.30
2018-08-17T17:18:09.986Z,6.50
2018-08-17T17:20:38.996Z,6.00
2018-08-17T17:23:08.897Z,9.60
2018-08-17T17:25:37.336Z,10.13
2018-08-17T17:28:06.111Z,9.80
2018-08-17T17:30:42.737Z,7.87
2018-08-17T17:33:11.593Z,9.73
2018-08-17T17:35:41.206Z,7.27
2018-08-17T17:38:10.092Z,6.87
2018-08-17T17:40:38.987Z,7.80
2018-08-17T17:43:07.553Z,6.90
2018-08-17T17:45:36.609Z,8.93
2018-08-17T17:48:05.149Z,8.83
2018-08-17T17:50:33.610Z,6.90
2018-08-17T17:53:02.916Z,7.43
2018-08-17T17:55:49.184Z,8.17
2018-08-17T17:58:18.413Z,6.97
2018-08-17T18:00:58.918Z,8.30
2018-08-17T18:03:29.382Z,8.17
2018-08-17T18:06:02.786Z,9.63
2018-08-17T18:08:31.274Z,10.00
2018-08-17T18:10:59.926Z,11.80
2018-08-17T18:13:28.607Z,15.33
2018-08-17T18:15:56.999Z,17.23
2018-08-17T18:18:25.515Z,14.10
2018-08-17T18:20:53.950Z,13.63
2018-08-17T18:23:22.377Z,13.20
2018-08-17T18:25:50.917Z,15.13
2018-08-17T18:28:19.378Z,15.73
2018-08-17T18:30:47.841Z,14.00
2018-08-17T18:33:16.176Z,12.60
2018-08-17T18:35:45.112Z,13.60
2018-08-17T18:38:13.477Z,13.33
2018-08-17T18:40:42.016Z,20.23
2018-08-17T18:43:10.509Z,16.07
2018-08-17T18:45:39.041Z,14.40
2018-08-17T18:48:07.528Z,16.37
2018-08-17T18:50:36.416Z,14.13
2018-08-17T18:53:04.851Z,14.60
2018-08-17T18:55:33.313Z,13.47
2018-08-17T18:58:01.722Z,14.30
2018-08-17T19:00:30.205Z,17.67
2018-08-17T19:02:58.637Z,11.80
2018-08-17T19:05:27.140Z,12.77
2018-08-17T19:07:55.732Z,16.47
2018-08-17T19:10:24.184Z,13.70
2018-08-17T19:12:52.549Z,12.67
2018-08-17T19:15:20.925Z,13.47
2018-08-17T19:17:49.344Z,12.70
2018-08-17T19:20:17.727Z,12.63
2018-08-17T19:22:46.333Z,15.60
2018-08-17T19:25:15.987Z,14.47
2018-08-17T19:27:44.515Z,15.50
2018-08-17T19:30:25.054Z,12.70
2018-08-17T19:32:55.065Z,15.43
2018-08-17T19:35:23.509Z,9.20
2018-08-17T19:37:52.492Z,13.53
2018-08-17T19:40:21.969Z,12.67
2018-08-17T19:42:50.547Z,15.33
2018-08-17T19:45:19.753Z,8.70
2018-08-17T19:47:49.175Z,9.43
2018-08-17T19:50:17.615Z,16.27
2018-08-17T19:52:45.995Z,9.33
2018-08-17T19:55:14.493Z,10.00
2018-08-17T19:57:42.914Z,7.87
2018-08-17T20:00:12.298Z,11.50
2018-08-17T20:02:41.450Z,9.03
2018-08-17T20:05:10.329Z,13.93
2018-08-17T20:07:39.115Z,11.93
2018-08-17T20:10:10.084Z,9.03
2018-08-17T20:12:38.634Z,9.90
2018-08-17T20:15:07.795Z,9.37
2018-08-17T20:17:36.755Z,7.80
2018-08-17T20:20:10.004Z,10.87
2018-08-17T20:22:38.526Z,15.03
2018-08-17T20:25:13.227Z,10.60
2018-08-17T20:27:42.425Z,11.20
2018-08-17T20:30:16.440Z,9.23
2018-08-17T20:32:45.553Z,11.70
2018-08-17T20:35:14.622Z,9.03
2018-08-17T20:37:46.274Z,9.90
2018-08-17T20:40:15.479Z,9.90
2018-08-17T20:42:44.275Z,13.90
2018-08-17T20:45:12.789Z,16.40
2018-08-17T20:47:41.858Z,15.30
2018-08-17T20:50:14.060Z,10.00
2018-08-17T20:52:50.471Z,13.50
2018-08-17T20:55:19.662Z,10.97
2018-08-17T20:57:52.430Z,10.57
2018-08-17T21:00:22.268Z,11.70
2018-08-17T21:02:50.793Z,12.87
2018-08-17T21:05:19.367Z,12.90
2018-08-17T21:07:48.357Z,10.73
2018-08-17T21:10:16.959Z,12.20
2018-08-17T21:12:46.380Z,12.43
2018-08-17T21:15:15.018Z,15.07
2018-08-17T21:17:43.441Z,11.53
2018-08-17T21:20:12.100Z,13.10
2018-08-17T21:22:40.681Z,11.60
2018-08-17T21:25:09.230Z,11.17
2018-08-17T21:27:37.746Z,12.43
2018-08-17T21:30:06.907Z,11.07
2018-08-17T21:32:35.401Z,13.93
2018-08-17T21:35:04.202Z,12.70
2018-08-17T21:37:32.651Z,14.07
2018-08-17T21:40:01.053Z,11.90
2018-08-17T21:42:29.454Z,10.87
2018-08-17T21:44:57.852Z,10.97
2018-08-17T21:47:26.284Z,10.17
2018-08-17T21:49:59.870Z,12.60
2018-08-17T21:52:28.602Z,12.37
2018-08-17T21:54:56.981Z,18.63
2018-08-17T21:57:25.546Z,15.80
2018-08-17T21:59:54.195Z,16.33
2018-08-17T22:02:23.096Z,13.97
2018-08-17T22:04:54.453Z,12.40
2018-08-17T22:07:24.576Z,13.60
2018-08-17T22:09:54.026Z,14.20
2018-08-17T22:12:22.633Z,13.70
2018-08-17T22:14:51.037Z,16.20
2018-08-17T22:17:40.720Z,13.30
2018-08-17T22:20:12.864Z,13.50
2018-08-17T22:22:42.126Z,16.40
2018-08-17T22:25:13.866Z,12.83
2018-08-17T22:27:42.340Z,16.40
2018-08-17T22:30:17.300Z,15.57
2018-08-17T22:32:45.551Z,15.70
2018-08-17T22:35:15.670Z,17.20
2018-08-17T22:37:44.804Z,19.30
2018-08-17T22:40:13.432Z,15.03
2018-08-17T22:42:42.215Z,15.90
2018-08-17T22:45:10.638Z,19.50
2018-08-17T22:47:39.658Z,22.30
2018-08-17T22:50:08.414Z,20.33
2018-08-17T22:52:36.991Z,16.17
2018-08-17T22:55:08.815Z,17.23
2018-08-17T22:57:37.475Z,18.80
2018-08-17T23:00:18.552Z,17.00
2018-08-17T23:02:48.264Z,18.00
2018-08-17T23:05:19.581Z,19.90
2018-08-17T23:07:48.594Z,19.13
2018-08-17T23:10:18.330Z,20.60
2018-08-17T23:12:47.845Z,27.17
2018-08-17T23:15:16.309Z,20.90
2018-08-17T23:17:47.381Z,23.13
2018-08-17T23:20:20.284Z,27.90
2018-08-17T23:22:50.162Z,24.60
2018-08-17T23:25:18.758Z,28.60
2018-08-17T23:27:47.957Z,24.63
2018-08-17T23:30:16.421Z,24.90
2018-08-17T23:32:45.115Z,28.03
2018-08-17T23:35:13.502Z,25.07
2018-08-17T23:37:42.057Z,29.27
2018-08-17T23:40:10.506Z,30.70
2018-08-17T23:42:39.079Z,26.60
2018-08-17T23:45:12.705Z,30.10
2018-08-17T23:47:41.113Z,27.03
2018-08-17T23:50:11.301Z,24.97
2018-08-17T23:52:39.768Z,27.60
2018-08-17T23:55:11.150Z,30.17
2018-08-17T23:57:39.475Z,26.10
